createdAt,value
2023-03-28T00:00:09.059Z,95652.78
2023-03-28T00:01:12.057Z,95651.56
2023-03-28T00:02:13.667Z,95654.91
2023-03-28T00:03:19.433Z,95650.69
2023-03-28T00:04:22.953Z,95650.13
2023-03-28T00:05:24.567Z,95651.78
2023-03-28T00:06:26.453Z,95658.22
2023-03-28T00:07:29.521Z,95663.75
2023-03-28T00:08:31.243Z,95667.09
2023-03-28T00:09:33.363Z,95665.06
2023-03-28T00:10:34.997Z,95658.88
2023-03-28T00:11:36.520Z,95677.50
2023-03-28T00:12:38.101Z,95677.50
2023-03-28T00:13:39.763Z,95678.16
2023-03-28T00:14:42.610Z,95675.72
2023-03-28T00:15:44.217Z,95683.25
2023-03-28T00:16:45.884Z,95679.78
2023-03-28T00:17:47.517Z,95692.28
2023-03-28T00:18:51.053Z,95688.75
2023-03-28T00:19:53.548Z,95687.84
2023-03-28T00:20:55.265Z,95687.06
2023-03-28T00:21:57.534Z,95688.94
2023-03-28T00:22:59.135Z,95678.84
2023-03-28T00:24:04.256Z,95693.28
2023-03-28T00:25:07.615Z,95700.78
2023-03-28T00:26:09.464Z,95712.41
2023-03-28T00:27:11.018Z,95696.88
2023-03-28T00:28:12.634Z,95710.97
2023-03-28T00:29:20.843Z,95715.06
2023-03-28T00:30:22.861Z,95713.03
2023-03-28T00:31:26.508Z,95696.13
2023-03-28T00:32:28.297Z,95711.94
2023-03-28T00:33:29.902Z,95719.50
2023-03-28T00:34:31.414Z,95722.78
2023-03-28T00:35:34.959Z,95725.44
2023-03-28T00:36:39.139Z,95741.88
2023-03-28T00:37:41.852Z,95742.97
2023-03-28T00:38:43.364Z,95746.50
2023-03-28T00:39:54.298Z,95734.00
2023-03-28T00:40:57.948Z,95746.06
2023-03-28T00:42:01.736Z,95730.75
2023-03-28T00:43:03.452Z,95741.41
2023-03-28T00:44:43.563Z,95738.94
2023-03-28T00:45:48.849Z,95749.56
2023-03-28T00:46:58.072Z,95738.34
2023-03-28T00:48:15.342Z,95758.06
2023-03-28T00:49:24.933Z,95755.41
2023-03-28T00:50:39.448Z,95742.19
2023-03-28T00:52:07.626Z,95750.47
2023-03-28T00:53:20.993Z,95745.72
2023-03-28T00:54:28.050Z,95753.81
2023-03-28T00:55:35.789Z,95750.38
2023-03-28T00:56:38.683Z,95751.47
2023-03-28T00:57:41.955Z,95756.47
2023-03-28T00:58:47.283Z,95751.03
2023-03-28T00:59:48.832Z,95751.81
2023-03-28T01:00:54.928Z,95760.75
2023-03-28T01:01:56.671Z,95753.72
2023-03-28T01:02:59.041Z,95763.59
2023-03-28T01:04:03.074Z,95763.13
2023-03-28T01:05:04.883Z,95766.31
2023-03-28T01:06:08.357Z,95737.59
2023-03-28T01:07:09.945Z,95769.66
2023-03-28T01:08:21.715Z,95752.81
2023-03-28T01:09:26.934Z,95755.47
2023-03-28T01:10:29.613Z,95743.63
2023-03-28T01:11:32.978Z,95748.94
2023-03-28T01:12:35.354Z,95742.72
2023-03-28T01:13:42.058Z,95741.66
2023-03-28T01:14:45.336Z,95766.16
2023-03-28T01:15:50.228Z,95759.16
2023-03-28T01:16:52.688Z,95766.03
2023-03-28T01:17:54.580Z,95749.16
2023-03-28T01:19:02.021Z,95752.94
2023-03-28T01:20:06.574Z,95769.94
2023-03-28T01:21:11.819Z,95766.19
2023-03-28T01:22:16.104Z,95779.47
2023-03-28T01:23:36.524Z,95791.63
2023-03-28T01:25:12.140Z,95777.91
2023-03-28T01:26:42.265Z,95793.19
2023-03-28T01:28:09.785Z,95809.78
2023-03-28T01:29:32.398Z,95792.94
2023-03-28T01:30:48.910Z,95794.03
2023-03-28T01:32:18.034Z,95802.00
2023-03-28T01:33:34.026Z,95823.22
2023-03-28T01:35:06.615Z,95825.56
2023-03-28T01:36:45.792Z,95822.59
2023-03-28T01:38:10.373Z,95811.53
2023-03-28T01:39:39.015Z,95820.41
2023-03-28T01:41:08.501Z,95826.50
2023-03-28T01:42:33.630Z,95825.56
2023-03-28T01:43:42.587Z,95829.00
2023-03-28T01:44:53.121Z,95816.84
2023-03-28T01:46:23.294Z,95816.06
2023-03-28T01:47:39.106Z,95836.81
2023-03-28T01:48:59.452Z,95811.38
2023-03-28T01:50:13.085Z,95838.25
2023-03-28T01:51:42.957Z,95817.63
2023-03-28T01:53:22.601Z,95818.91
2023-03-28T01:54:30.242Z,95827.34
2023-03-28T01:56:01.849Z,95827.50
2023-03-28T01:57:10.442Z,95839.19
2023-03-28T01:58:40.237Z,95837.03
2023-03-28T01:59:51.121Z,95835.16
2023-03-28T02:00:59.172Z,95830.16
2023-03-28T02:02:24.472Z,95851.41
2023-03-28T02:03:36.599Z,95831.91
2023-03-28T02:04:42.064Z,95845.78
2023-03-28T02:05:46.112Z,95864.84
2023-03-28T02:06:51.534Z,95840.81
2023-03-28T02:07:54.700Z,95864.53
2023-03-28T02:08:57.613Z,95813.03
2023-03-28T02:10:01.475Z,95849.09
2023-03-28T02:11:03.791Z,95866.09
2023-03-28T02:12:15.702Z,95841.13
2023-03-28T02:13:29.302Z,95855.34
2023-03-28T02:14:37.403Z,95840.81
2023-03-28T02:15:40.771Z,95864.25
2023-03-28T02:16:50.005Z,95851.78
2023-03-28T02:17:58.239Z,95851.16
2023-03-28T02:19:00.692Z,95861.78
2023-03-28T02:20:11.694Z,95838.50
2023-03-28T02:21:36.631Z,95840.25
2023-03-28T02:22:40.988Z,95838.69
2023-03-28T02:23:47.367Z,95870.50
2023-03-28T02:24:51.869Z,95874.25
2023-03-28T02:25:53.508Z,95858.97
2023-03-28T02:26:56.260Z,95863.34
2023-03-28T02:28:03.310Z,95865.09
2023-03-28T02:29:06.262Z,95874.44
2023-03-28T02:30:09.250Z,95871.66
2023-03-28T02:31:13.779Z,95883.34
2023-03-28T02:32:17.138Z,95872.72
2023-03-28T02:33:44.061Z,95880.22
2023-03-28T02:34:48.930Z,95882.41
2023-03-28T02:36:10.655Z,95890.81
2023-03-28T02:37:29.517Z,95884.72
2023-03-28T02:38:44.346Z,95893.03
2023-03-28T02:39:50.729Z,95891.31
2023-03-28T02:41:10.874Z,95875.84
2023-03-28T02:42:45.603Z,95877.09
2023-03-28T02:43:52.966Z,95885.53
2023-03-28T02:45:10.547Z,95885.53
2023-03-28T02:46:24.049Z,95893.00
2023-03-28T02:48:09.119Z,95878.81
2023-03-28T02:49:20.595Z,95878.34
2023-03-28T02:50:27.817Z,95881.16
2023-03-28T02:51:41.711Z,95865.25
2023-03-28T02:53:18.366Z,95881.78
2023-03-28T02:54:37.858Z,95893.94
2023-03-28T02:55:58.092Z,95903.00
2023-03-28T02:57:37.754Z,95912.03
2023-03-28T02:58:42.761Z,95911.38
2023-03-28T02:59:50.397Z,95907.66
2023-03-28T03:00:52.167Z,95916.56
2023-03-28T03:01:54.116Z,95919.38
2023-03-28T03:02:57.073Z,95926.69
2023-03-28T03:03:59.117Z,95926.06
2023-03-28T03:05:01.820Z,95912.97
2023-03-28T03:06:05.005Z,95919.81
2023-03-28T03:07:09.524Z,95913.91
2023-03-28T03:08:11.908Z,95938.72
2023-03-28T03:09:13.415Z,95926.06
2023-03-28T03:10:17.000Z,95921.53
2023-03-28T03:11:18.542Z,95927.63
2023-03-28T03:12:21.304Z,95936.66
2023-03-28T03:13:23.227Z,95943.38
2023-03-28T03:14:25.647Z,95937.63
2023-03-28T03:15:30.910Z,95945.09
2023-03-28T03:16:32.533Z,95935.28
2023-03-28T03:17:34.116Z,95940.09
2023-03-28T03:18:37.025Z,95951.47
2023-03-28T03:19:38.555Z,95958.34
2023-03-28T03:20:41.243Z,95955.72
2023-03-28T03:21:42.749Z,95959.44
2023-03-28T03:22:44.523Z,95954.91
2023-03-28T03:23:46.194Z,95960.22
2023-03-28T03:24:48.350Z,95952.91
2023-03-28T03:25:50.751Z,95963.03
2023-03-28T03:26:52.346Z,95968.81
2023-03-28T03:27:53.930Z,95952.75
2023-03-28T03:28:57.430Z,95954.91
2023-03-28T03:29:59.406Z,95975.69
2023-03-28T03:31:01.213Z,95965.69
2023-03-28T03:32:02.789Z,95965.38
2023-03-28T03:33:05.600Z,95988.44
2023-03-28T03:34:07.760Z,95971.94
2023-03-28T03:35:09.731Z,95971.59
2023-03-28T03:36:12.810Z,95982.84
2023-03-28T03:37:17.778Z,95986.88
2023-03-28T03:38:19.383Z,95976.91
2023-03-28T03:39:22.101Z,95971.13
2023-03-28T03:40:23.616Z,95994.38
2023-03-28T03:41:25.608Z,95986.88
2023-03-28T03:42:27.164Z,95991.59
2023-03-28T03:43:28.869Z,95983.00
2023-03-28T03:44:30.433Z,95996.91
2023-03-28T03:45:32.425Z,96004.38
2023-03-28T03:46:33.991Z,96012.81
2023-03-28T03:47:35.686Z,96004.06
2023-03-28T03:48:37.247Z,96007.50
2023-03-28T03:49:38.914Z,96006.88
2023-03-28T03:50:40.878Z,96020.59
2023-03-28T03:51:42.454Z,96006.09
2023-03-28T03:52:44.044Z,96016.69
2023-03-28T03:53:46.725Z,96013.09
2023-03-28T03:54:48.416Z,96021.53
2023-03-28T03:55:50.013Z,96012.03
2023-03-28T03:56:51.604Z,96013.09
2023-03-28T03:57:53.270Z,96013.75
2023-03-28T03:58:54.820Z,96011.56
2023-03-28T03:59:57.358Z,95999.41
2023-03-28T04:00:59.451Z,96010.00
2023-03-28T04:02:01.469Z,96013.09
2023-03-28T04:03:03.439Z,96011.88
2023-03-28T04:04:07.282Z,96011.88
2023-03-28T04:05:09.338Z,96000.00
2023-03-28T04:06:10.923Z,96004.50
2023-03-28T04:07:12.854Z,96015.91
2023-03-28T04:08:14.366Z,96005.31
2023-03-28T04:09:15.928Z,96015.91
2023-03-28T04:10:17.499Z,96007.34
2023-03-28T04:11:19.070Z,96011.09
2023-03-28T04:12:20.682Z,96012.03
2023-03-28T04:13:22.487Z,96009.06
2023-03-28T04:14:24.158Z,96018.09
2023-03-28T04:15:25.759Z,96019.50
2023-03-28T04:16:28.306Z,96016.69
2023-03-28T04:17:44.264Z,96032.44
2023-03-28T04:18:50.927Z,96028.09
2023-03-28T04:19:52.827Z,96039.47
2023-03-28T04:20:58.129Z,96025.56
2023-03-28T04:21:59.696Z,96034.94
2023-03-28T04:23:01.406Z,96036.19
2023-03-28T04:24:04.023Z,96041.81
2023-03-28T04:25:06.628Z,96037.13
2023-03-28T04:26:08.806Z,96049.28
2023-03-28T04:27:13.652Z,96062.84
2023-03-28T04:28:16.831Z,96052.88
2023-03-28T04:29:18.325Z,96058.00
2023-03-28T04:30:21.119Z,96060.34
2023-03-28T04:31:29.480Z,96063.31
2023-03-28T04:32:35.838Z,96067.53
2023-03-28T04:33:37.705Z,96078.47
2023-03-28T04:34:39.275Z,96071.78
2023-03-28T04:35:40.903Z,96080.81
2023-03-28T04:36:43.850Z,96084.53
2023-03-28T04:37:45.450Z,96082.34
2023-03-28T04:38:47.020Z,96084.84
2023-03-28T04:39:48.720Z,96078.94
2023-03-28T04:40:53.655Z,96091.28
2023-03-28T04:41:57.375Z,96083.03
2023-03-28T04:42:58.981Z,96096.75
2023-03-28T04:44:00.959Z,96098.78
2023-03-28T04:45:02.560Z,96105.50
2023-03-28T04:46:04.323Z,96109.56
2023-03-28T04:47:08.733Z,96116.44
2023-03-28T04:48:10.480Z,96103.63
2023-03-28T04:49:12.165Z,96120.81
2023-03-28T04:50:13.708Z,96116.28
2023-03-28T04:51:15.640Z,96118.47
2023-03-28T04:52:17.247Z,96116.59
2023-03-28T04:53:18.989Z,96126.44
2023-03-28T04:54:20.807Z,96127.88
2023-03-28T04:55:22.564Z,96127.06
2023-03-28T04:56:24.128Z,96128.63
2023-03-28T04:57:25.847Z,96129.56
2023-03-28T04:58:27.412Z,96126.44
2023-03-28T04:59:29.606Z,96133.31
2023-03-28T05:00:31.196Z,96139.56
2023-03-28T05:01:33.147Z,96134.88
2023-03-28T05:02:34.819Z,96140.03
2023-03-28T05:03:37.834Z,96134.25
2023-03-28T05:04:40.548Z,96133.31
2023-03-28T05:05:42.157Z,96133.16
2023-03-28T05:06:47.873Z,96133.31
2023-03-28T05:07:49.532Z,96134.75
2023-03-28T05:08:51.057Z,96139.91
2023-03-28T05:09:52.602Z,96141.63
2023-03-28T05:10:55.348Z,96137.09
2023-03-28T05:11:56.925Z,96139.91
2023-03-28T05:12:58.997Z,96130.84
2023-03-28T05:14:00.731Z,96135.38
2023-03-28T05:15:02.471Z,96134.25
2023-03-28T05:16:04.610Z,96137.38
2023-03-28T05:17:06.308Z,96126.13
2023-03-28T05:18:08.207Z,96139.25
2023-03-28T05:19:10.616Z,96139.56
2023-03-28T05:20:12.539Z,96128.94
2023-03-28T05:21:14.033Z,96126.63
2023-03-28T05:22:15.605Z,96131.75
2023-03-28T05:23:17.392Z,96133.94
2023-03-28T05:24:18.964Z,96136.72
2023-03-28T05:25:20.554Z,96134.53
2023-03-28T05:26:22.154Z,96137.38
2023-03-28T05:27:24.224Z,96137.84
2023-03-28T05:28:25.921Z,96134.88
2023-03-28T05:29:27.504Z,96132.88
2023-03-28T05:30:29.025Z,96140.81
2023-03-28T05:31:30.944Z,96147.53
2023-03-28T05:32:32.558Z,96141.47
2023-03-28T05:33:36.616Z,96151.94
2023-03-28T05:34:38.235Z,96152.13
2023-03-28T05:35:40.488Z,96160.09
2023-03-28T05:36:43.141Z,96160.25
2023-03-28T05:37:46.736Z,96163.69
2023-03-28T05:38:48.821Z,96157.47
2023-03-28T05:39:50.530Z,96163.88
2023-03-28T05:40:53.074Z,96167.16
2023-03-28T05:41:54.644Z,96158.72
2023-03-28T05:42:56.280Z,96170.13
2023-03-28T05:43:57.834Z,96185.13
2023-03-28T05:44:59.410Z,96179.97
2023-03-28T05:46:01.069Z,96171.38
2023-03-28T05:47:02.669Z,96177.31
2023-03-28T05:48:04.593Z,96182.78
2023-03-28T05:49:06.192Z,96185.28
2023-03-28T05:50:08.881Z,96191.97
2023-03-28T05:51:10.428Z,96196.19
2023-03-28T05:52:11.968Z,96192.94
2023-03-28T05:53:13.528Z,96194.03
2023-03-28T05:54:15.465Z,96196.22
2023-03-28T05:55:17.177Z,96188.41
2023-03-28T05:56:18.722Z,96193.13
2023-03-28T05:57:20.974Z,96190.31
2023-03-28T05:58:22.568Z,96202.47
2023-03-28T05:59:26.735Z,96202.03
2023-03-28T06:00:28.262Z,96200.47
2023-03-28T06:01:31.390Z,96208.59
2023-03-28T06:02:33.564Z,96203.41
2023-03-28T06:03:40.259Z,96203.38
2023-03-28T06:04:42.690Z,96189.00
2023-03-28T06:05:44.539Z,96187.72
2023-03-28T06:06:48.693Z,96198.00
2023-03-28T06:07:50.241Z,96190.34
2023-03-28T06:08:51.856Z,96203.47
2023-03-28T06:09:53.858Z,96197.25
2023-03-28T06:11:00.451Z,96195.81
2023-03-28T06:12:02.763Z,96192.06
2023-03-28T06:13:04.346Z,96193.78
2023-03-28T06:14:06.607Z,96192.34
2023-03-28T06:15:09.510Z,96201.41
2023-03-28T06:16:11.112Z,96199.06
2023-03-28T06:17:12.702Z,96192.03
2023-03-28T06:18:14.311Z,96190.19
2023-03-28T06:19:18.356Z,96193.13
2023-03-28T06:20:20.415Z,96188.28
2023-03-28T06:21:21.986Z,96185.63
2023-03-28T06:22:23.760Z,96191.09
2023-03-28T06:23:25.544Z,96192.19
2023-03-28T06:24:27.101Z,96197.38
2023-03-28T06:25:28.677Z,96173.97
2023-03-28T06:26:30.365Z,96195.19
2023-03-28T06:27:32.954Z,96197.13
2023-03-28T06:28:34.483Z,96202.88
2023-03-28T06:29:36.457Z,96193.06
2023-03-28T06:30:40.091Z,96199.00
2023-03-28T06:31:41.709Z,96193.69
2023-03-28T06:32:43.264Z,96198.38
2023-03-28T06:33:44.874Z,96192.59
2023-03-28T06:34:46.424Z,96192.44
2023-03-28T06:35:48.018Z,96202.94
2023-03-28T06:36:49.560Z,96193.72
2023-03-28T06:37:51.113Z,96194.19
2023-03-28T06:38:53.659Z,96203.72
2023-03-28T06:39:55.394Z,96199.97
2023-03-28T06:40:57.015Z,96212.63
2023-03-28T06:41:59.779Z,96223.09
2023-03-28T06:43:01.484Z,96237.44
2023-03-28T06:44:03.060Z,96245.88
2023-03-28T06:45:04.881Z,96252.59
2023-03-28T06:46:07.090Z,96235.25
2023-03-28T06:47:08.755Z,96265.84
2023-03-28T06:48:10.821Z,96253.31
2023-03-28T06:49:12.467Z,96255.50
2023-03-28T06:50:13.995Z,96257.06
2023-03-28T06:51:15.564Z,96265.50
2023-03-28T06:52:17.405Z,96258.50
2023-03-28T06:53:19.214Z,96263.34
2023-03-28T06:54:20.799Z,96266.94
2023-03-28T06:55:22.845Z,96256.00
2023-03-28T06:56:24.455Z,96248.00
2023-03-28T06:57:26.406Z,96242.38
2023-03-28T06:58:28.053Z,96254.34
2023-03-28T06:59:29.655Z,96260.75
2023-03-28T07:00:31.343Z,96256.81
2023-03-28T07:01:33.108Z,96259.16
2023-03-28T07:02:34.852Z,96255.09
2023-03-28T07:03:36.597Z,96260.38
2023-03-28T07:04:38.286Z,96265.69
2023-03-28T07:05:41.230Z,96259.59
2023-03-28T07:06:42.967Z,96267.28
2023-03-28T07:07:44.526Z,96264.47
2023-03-28T07:08:46.148Z,96278.84
2023-03-28T07:09:49.911Z,96280.09
2023-03-28T07:10:51.484Z,96277.63
2023-03-28T07:11:53.479Z,96280.56
2023-03-28T07:12:54.971Z,96275.59
2023-03-28T07:13:56.471Z,96262.44
2023-03-28T07:14:58.054Z,96278.19
2023-03-28T07:16:15.364Z,96283.19
2023-03-28T07:17:16.993Z,96272.94
2023-03-28T07:18:18.564Z,96266.03
2023-03-28T07:19:20.176Z,96272.72
2023-03-28T07:20:21.778Z,96262.88
2023-03-28T07:21:23.371Z,96265.25
2023-03-28T07:22:25.069Z,96268.84
2023-03-28T07:23:26.593Z,96269.16
2023-03-28T07:24:28.129Z,96274.81
2023-03-28T07:25:29.700Z,96275.63
2023-03-28T07:26:31.377Z,96277.34
2023-03-28T07:27:32.923Z,96261.44
2023-03-28T07:28:34.810Z,96269.09
2023-03-28T07:29:37.544Z,96279.06
2023-03-28T07:30:39.116Z,96273.25
2023-03-28T07:31:41.209Z,96287.00
2023-03-28T07:32:53.375Z,96266.22
2023-03-28T07:33:59.506Z,96289.31
2023-03-28T07:35:01.255Z,96292.31
2023-03-28T07:36:15.103Z,96281.13
2023-03-28T07:37:17.231Z,96291.91
2023-03-28T07:38:19.149Z,96281.28
2023-03-28T07:39:20.787Z,96278.44
2023-03-28T07:40:22.301Z,96288.91
2023-03-28T07:41:23.869Z,96289.69
2023-03-28T07:42:26.943Z,96293.00
2023-03-28T07:43:28.483Z,96295.66
2023-03-28T07:44:30.085Z,96293.63
2023-03-28T07:45:32.078Z,96288.31
2023-03-28T07:46:37.446Z,96283.00
2023-03-28T07:47:39.048Z,96270.38
2023-03-28T07:48:41.284Z,96291.75
2023-03-28T07:49:42.824Z,96281.13
2023-03-28T07:50:44.728Z,96295.94
2023-03-28T07:51:47.863Z,96285.81
2023-03-28T07:52:50.717Z,96299.38
2023-03-28T07:53:52.424Z,96309.88
2023-03-28T07:54:54.108Z,96303.06
2023-03-28T07:55:56.333Z,96295.47
2023-03-28T07:56:58.111Z,96294.38
2023-03-28T07:58:00.155Z,96308.59
2023-03-28T07:59:02.083Z,96302.34
2023-03-28T08:00:13.373Z,96295.66
2023-03-28T08:01:15.590Z,96301.59
2023-03-28T08:02:17.503Z,96314.91
2023-03-28T08:03:19.335Z,96290.81
2023-03-28T08:04:21.209Z,96289.06
2023-03-28T08:05:24.234Z,96303.91
2023-03-28T08:06:32.120Z,96293.09
2023-03-28T08:07:34.761Z,96294.06
2023-03-28T08:08:36.530Z,96298.28
2023-03-28T08:09:38.261Z,96294.06
2023-03-28T08:10:39.773Z,96282.66
2023-03-28T08:11:42.859Z,96274.34
2023-03-28T08:12:44.404Z,96296.78
2023-03-28T08:13:45.968Z,96305.19
2023-03-28T08:14:47.518Z,96298.81
2023-03-28T08:15:52.997Z,96299.22
2023-03-28T08:16:56.554Z,96267.34
2023-03-28T08:17:58.230Z,96302.00
2023-03-28T08:19:09.826Z,96304.31
2023-03-28T08:20:12.728Z,96310.28
2023-03-28T08:21:14.300Z,96313.81
2023-03-28T08:22:17.311Z,96302.69
2023-03-28T08:23:18.899Z,96321.94
2023-03-28T08:24:32.941Z,96323.22
2023-03-28T08:25:36.650Z,96294.16
2023-03-28T08:26:38.509Z,96300.41
2023-03-28T08:27:40.155Z,96317.28
2023-03-28T08:28:41.902Z,96297.25
2023-03-28T08:29:43.587Z,96324.63
2023-03-28T08:30:45.167Z,96311.50
2023-03-28T08:31:47.880Z,96315.09
2023-03-28T08:32:50.954Z,96316.16
2023-03-28T08:33:53.571Z,96324.00
2023-03-28T08:34:55.638Z,96305.69
2023-03-28T08:35:57.431Z,96314.75
2023-03-28T08:36:59.907Z,96328.53
2023-03-28T08:38:01.578Z,96330.72
2023-03-28T08:39:04.944Z,96319.00
2023-03-28T08:40:10.338Z,96329.47
2023-03-28T08:41:28.799Z,96348.91
2023-03-28T08:43:22.562Z,96346.38
2023-03-28T08:44:29.956Z,96349.97
2023-03-28T08:45:41.626Z,96355.63
2023-03-28T08:46:45.561Z,96357.84
2023-03-28T08:48:06.063Z,96344.53
2023-03-28T08:49:12.902Z,96337.19
2023-03-28T08:50:28.621Z,96359.22
2023-03-28T08:51:35.568Z,96338.56
2023-03-28T08:52:38.386Z,96357.50
2023-03-28T08:53:44.693Z,96348.72
2023-03-28T08:54:55.626Z,96337.91
2023-03-28T08:55:58.862Z,96356.06
2023-03-28T08:57:04.179Z,96352.50
2023-03-28T08:58:10.321Z,96357.50
2023-03-28T08:59:16.004Z,96361.06
2023-03-28T09:00:33.316Z,96360.94
2023-03-28T09:01:35.498Z,96356.25
2023-03-28T09:02:37.473Z,96362.66
2023-03-28T09:03:39.754Z,96349.81
2023-03-28T09:04:41.472Z,96350.41
2023-03-28T09:06:12.272Z,96366.38
2023-03-28T09:07:22.475Z,96352.38
2023-03-28T09:08:38.952Z,96361.88
2023-03-28T09:09:43.580Z,96361.50
2023-03-28T09:11:02.612Z,96368.13
2023-03-28T09:12:16.340Z,96358.06
2023-03-28T09:13:32.187Z,96362.72
2023-03-28T09:14:54.397Z,96349.91
2023-03-28T09:16:03.128Z,96367.03
2023-03-28T09:17:25.914Z,96348.44
2023-03-28T09:18:55.555Z,96365.84
2023-03-28T09:20:16.413Z,96357.69
2023-03-28T09:21:31.397Z,96363.63
2023-03-28T09:23:15.268Z,96339.97
2023-03-28T09:24:41.586Z,96366.88
2023-03-28T09:25:57.200Z,96350.31
2023-03-28T09:27:13.154Z,96343.41
2023-03-28T09:28:38.950Z,96366.88
2023-03-28T09:29:43.200Z,96368.75
2023-03-28T09:30:48.834Z,96370.50
2023-03-28T09:31:56.386Z,96381.75
2023-03-28T09:33:03.253Z,96379.41
2023-03-28T09:34:07.141Z,96376.75
2023-03-28T09:35:17.083Z,96391.44
2023-03-28T09:36:22.770Z,96371.75
2023-03-28T09:37:40.893Z,96398.78
2023-03-28T09:39:11.373Z,96388.94
2023-03-28T09:40:21.598Z,96371.75
2023-03-28T09:41:33.378Z,96386.59
2023-03-28T09:42:54.001Z,96390.50
2023-03-28T09:43:59.394Z,96381.56
2023-03-28T09:45:32.395Z,96384.06
2023-03-28T09:46:39.971Z,96376.75
2023-03-28T09:47:46.672Z,96373.81
2023-03-28T09:48:49.098Z,96378.66
2023-03-28T09:49:59.224Z,96378.03
2023-03-28T09:51:15.502Z,96389.94
2023-03-28T09:52:21.857Z,96380.84
2023-03-28T09:53:42.510Z,96375.53
2023-03-28T09:54:44.077Z,96394.31
2023-03-28T09:55:54.676Z,96371.00
2023-03-28T09:57:05.120Z,96374.72
2023-03-28T09:58:12.337Z,96375.16
2023-03-28T09:59:28.653Z,96380.03
2023-03-28T10:00:35.528Z,96378.03
2023-03-28T10:01:44.138Z,96386.75
2023-03-28T10:02:52.961Z,96386.28
2023-03-28T10:03:56.011Z,96362.19
2023-03-28T10:04:58.350Z,96360.91
2023-03-28T10:06:21.005Z,96363.09
2023-03-28T10:07:42.538Z,96376.28
2023-03-28T10:08:44.539Z,96373.75
2023-03-28T10:09:51.371Z,96357.81
2023-03-28T10:11:02.686Z,96375.81
2023-03-28T10:12:10.259Z,96379.25
2023-03-28T10:13:11.955Z,96371.59
2023-03-28T10:14:40.756Z,96387.69
2023-03-28T10:15:46.026Z,96395.81
2023-03-28T10:16:47.685Z,96390.50
2023-03-28T10:17:50.909Z,96386.75
2023-03-28T10:18:53.202Z,96383.47
2023-03-28T10:20:05.552Z,96393.63
2023-03-28T10:21:27.109Z,96383.28
2023-03-28T10:22:33.837Z,96377.97
2023-03-28T10:23:36.874Z,96390.16
2023-03-28T10:24:39.854Z,96389.19
2023-03-28T10:25:44.533Z,96381.69
2023-03-28T10:26:46.121Z,96399.00
2023-03-28T10:27:49.079Z,96409.06
2023-03-28T10:28:54.657Z,96412.06
2023-03-28T10:29:58.684Z,96397.41
2023-03-28T10:31:03.129Z,96391.78
2023-03-28T10:32:06.438Z,96401.78
2023-03-28T10:33:08.996Z,96388.19
2023-03-28T10:34:27.152Z,96396.34
2023-03-28T10:35:31.128Z,96389.41
2023-03-28T10:36:43.692Z,96359.22
2023-03-28T10:37:48.328Z,96394.88
2023-03-28T10:38:50.368Z,96387.84
2023-03-28T10:40:00.757Z,96398.34
2023-03-28T10:41:26.147Z,96399.91
2023-03-28T10:42:28.267Z,96402.72
2023-03-28T10:43:35.441Z,96401.16
2023-03-28T10:44:37.079Z,96390.19
2023-03-28T10:45:43.389Z,96397.53
2023-03-28T10:46:46.327Z,96419.75
2023-03-28T10:47:51.658Z,96408.47
2023-03-28T10:48:57.687Z,96427.59
2023-03-28T10:50:00.664Z,96398.94
2023-03-28T10:51:10.593Z,96411.28
2023-03-28T10:52:22.675Z,96401.94
2023-03-28T10:53:39.740Z,96410.06
2023-03-28T10:55:07.662Z,96410.66
2023-03-28T10:56:21.124Z,96401.00
2023-03-28T10:57:32.192Z,96409.56
2023-03-28T10:58:52.115Z,96429.00
2023-03-28T11:00:21.258Z,96421.47
2023-03-28T11:01:59.646Z,96415.81
2023-03-28T11:03:24.292Z,96418.28
2023-03-28T11:04:59.523Z,96416.41
2023-03-28T11:06:12.321Z,96429.03
2023-03-28T11:07:41.445Z,96441.56
2023-03-28T11:09:03.857Z,96454.28
2023-03-28T11:10:37.327Z,96443.63
2023-03-28T11:11:47.597Z,96448.38
2023-03-28T11:13:16.716Z,96453.25
2023-03-28T11:14:26.039Z,96430.88
2023-03-28T11:15:34.099Z,96446.50
2023-03-28T11:16:50.858Z,96431.81
2023-03-28T11:18:17.065Z,96444.22
2023-03-28T11:19:39.637Z,96442.06
2023-03-28T11:21:01.163Z,96437.84
2023-03-28T11:22:17.958Z,96442.84
2023-03-28T11:23:55.420Z,96433.44
2023-03-28T11:25:23.372Z,96415.13
2023-03-28T11:26:40.151Z,96405.88
2023-03-28T11:27:44.838Z,96430.00
2023-03-28T11:28:55.279Z,96444.72
2023-03-28T11:30:09.950Z,96425.94
2023-03-28T11:31:26.883Z,96443.16
2023-03-28T11:32:35.925Z,96418.25
2023-03-28T11:33:59.178Z,96445.34
2023-03-28T11:35:22.215Z,96458.50
2023-03-28T11:36:58.342Z,96430.94
2023-03-28T11:38:36.128Z,96435.97
2023-03-28T11:39:43.697Z,96427.97
2023-03-28T11:41:18.737Z,96422.47
2023-03-28T11:42:29.156Z,96438.91
2023-03-28T11:43:42.928Z,96430.63
2023-03-28T11:45:18.800Z,96431.25
2023-03-28T11:46:43.286Z,96429.06
2023-03-28T11:47:57.847Z,96429.22
2023-03-28T11:49:11.660Z,96435.03
2023-03-28T11:50:24.851Z,96428.44
2023-03-28T11:51:39.150Z,96451.28
2023-03-28T11:52:48.832Z,96440.66
2023-03-28T11:53:57.062Z,96445.19
2023-03-28T11:55:20.554Z,96439.25
2023-03-28T11:56:50.387Z,96446.91
2023-03-28T11:58:16.361Z,96442.50
2023-03-28T11:59:35.493Z,96450.34
2023-03-28T12:00:46.208Z,96451.41
2023-03-28T12:01:53.798Z,96448.91
2023-03-28T12:03:02.310Z,96460.97
2023-03-28T12:04:13.584Z,96452.81
2023-03-28T12:05:25.440Z,96440.59
2023-03-28T12:06:52.342Z,96445.75
2023-03-28T12:08:19.042Z,96429.59
2023-03-28T12:09:34.716Z,96431.84
2023-03-28T12:10:38.035Z,96423.06
2023-03-28T12:11:42.201Z,96438.13
2023-03-28T12:13:12.551Z,96432.00
2023-03-28T12:14:41.250Z,96436.53
2023-03-28T12:15:53.834Z,96437.03
2023-03-28T12:16:58.754Z,96431.69
2023-03-28T12:18:10.574Z,96444.53
2023-03-28T12:19:19.537Z,96421.63
2023-03-28T12:20:38.523Z,96431.88
2023-03-28T12:21:42.782Z,96451.47
2023-03-28T12:22:50.441Z,96444.88
2023-03-28T12:24:16.059Z,96462.09
2023-03-28T12:25:44.995Z,96456.78
2023-03-28T12:27:12.501Z,96453.94
2023-03-28T12:28:33.256Z,96456.63
2023-03-28T12:29:46.619Z,96453.81
2023-03-28T12:30:54.902Z,96460.69
2023-03-28T12:32:19.081Z,96445.81
2023-03-28T12:33:43.319Z,96453.94
2023-03-28T12:34:53.860Z,96450.38
2023-03-28T12:36:04.437Z,96474.78
2023-03-28T12:37:25.054Z,96463.53
2023-03-28T12:38:32.395Z,96463.03
2023-03-28T12:39:46.210Z,96452.09
2023-03-28T12:40:47.827Z,96455.84
2023-03-28T12:41:50.983Z,96464.94
2023-03-28T12:42:55.814Z,96471.84
2023-03-28T12:43:59.587Z,96472.44
2023-03-28T12:45:06.881Z,96484.31
2023-03-28T12:46:08.804Z,96479.63
2023-03-28T12:47:24.787Z,96478.84
2023-03-28T12:48:49.841Z,96490.28
2023-03-28T12:49:58.951Z,96483.22
2023-03-28T12:51:10.999Z,96479.63
2023-03-28T12:52:18.402Z,96472.28
2023-03-28T12:53:22.026Z,96480.56
2023-03-28T12:54:27.950Z,96488.06
2023-03-28T12:55:31.497Z,96485.41
2023-03-28T12:56:33.475Z,96478.50
2023-03-28T12:57:43.851Z,96488.78
2023-03-28T12:58:48.104Z,96481.94
2023-03-28T13:00:19.613Z,96478.38
2023-03-28T13:01:41.615Z,96472.75
2023-03-28T13:02:49.550Z,96470.41
2023-03-28T13:04:12.415Z,96476.19
2023-03-28T13:05:28.042Z,96471.38
2023-03-28T13:07:01.112Z,96463.97
2023-03-28T13:08:46.504Z,96486.38
2023-03-28T13:09:57.830Z,96471.31
2023-03-28T13:10:59.591Z,96481.97
2023-03-28T13:12:24.398Z,96491.72
2023-03-28T13:13:46.822Z,96487.31
2023-03-28T13:15:01.072Z,96474.03
2023-03-28T13:16:14.254Z,96478.09